createdAt,value
2019-04-21T00:00:58.526Z,13.80
2019-04-21T00:03:27.566Z,13.87
2019-04-21T00:06:09.471Z,13.86
2019-04-21T00:08:42.814Z,13.80
2019-04-21T00:11:10.751Z,13.67
2019-04-21T00:13:33.147Z,13.51
2019-04-21T00:15:53.445Z,13.41
2019-04-21T00:18:15.524Z,13.30
2019-04-21T00:20:49.519Z,13.33
2019-04-21T00:23:30.013Z,13.38
2019-04-21T00:25:52.573Z,13.33
2019-04-21T00:28:33.244Z,13.16
2019-04-21T00:30:56.877Z,13.13
2019-04-21T00:33:12.508Z,13.14
2019-04-21T00:35:42.619Z,13.14
2019-04-21T00:38:25.177Z,13.06
2019-04-21T00:40:54.099Z,13.04
2019-04-21T00:43:15.192Z,13.05
2019-04-21T00:45:43.532Z,13.01
2019-04-21T00:48:21.369Z,12.86
2019-04-21T00:51:03.441Z,12.85
2019-04-21T00:53:22.570Z,12.71
2019-04-21T00:55:53.437Z,12.67
2019-04-21T00:58:19.453Z,12.56
2019-04-21T01:00:46.015Z,12.57
2019-04-21T01:03:14.505Z,12.64
2019-04-21T01:05:49.806Z,12.70
2019-04-21T01:08:09.960Z,12.66
2019-04-21T01:10:28.765Z,12.88
2019-04-21T01:13:12.905Z,12.99
2019-04-21T01:15:37.374Z,12.89
2019-04-21T01:18:06.358Z,12.72
2019-04-21T01:20:17.256Z,12.80
2019-04-21T01:22:41.501Z,12.93
2019-04-21T01:25:19.274Z,12.93
2019-04-21T01:27:56.446Z,12.99
2019-04-21T01:30:29.171Z,12.89
2019-04-21T01:32:55.768Z,12.96
2019-04-21T01:35:25.696Z,12.89
2019-04-21T01:38:10.943Z,12.80
2019-04-21T01:42:51.111Z,12.43
2019-04-21T01:45:14.737Z,12.30
2019-04-21T01:47:40.850Z,12.28
2019-04-21T01:50:05.749Z,12.37
2019-04-21T01:52:54.638Z,12.42
2019-04-21T01:55:13.795Z,12.46
2019-04-21T01:57:37.783Z,12.32
2019-04-21T02:00:00.486Z,12.33
2019-04-21T02:02:44.823Z,12.34
2019-04-21T02:05:10.549Z,12.29
2019-04-21T02:07:40.290Z,12.22
2019-04-21T02:10:12.821Z,12.21
2019-04-21T02:12:36.142Z,12.17
2019-04-21T02:15:04.825Z,12.04
2019-04-21T02:17:31.054Z,12.05
2019-04-21T02:19:57.366Z,12.10
2019-04-21T02:22:43.107Z,12.17
2019-04-21T02:25:01.016Z,12.21
2019-04-21T02:27:23.396Z,12.23
2019-04-21T02:29:55.248Z,12.41
2019-04-21T02:32:42.100Z,12.40
2019-04-21T02:35:18.730Z,12.38
2019-04-21T02:40:04.973Z,12.17
2019-04-21T02:42:31.528Z,12.16
2019-04-21T02:44:55.452Z,12.07
2019-04-21T02:47:37.981Z,12.09
2019-04-21T02:50:00.268Z,12.08
2019-04-21T02:55:02.700Z,12.10
2019-04-21T02:57:19.034Z,12.28
2019-04-21T02:59:49.688Z,12.13
2019-04-21T03:02:14.510Z,12.05
2019-04-21T03:04:42.250Z,11.94
2019-04-21T03:07:14.887Z,11.97
2019-04-21T03:12:11.187Z,11.77
2019-04-21T03:14:46.430Z,11.68
2019-04-21T03:17:09.113Z,11.75
2019-04-21T03:22:07.138Z,11.57
2019-04-21T03:24:59.061Z,11.70
2019-04-21T03:42:02.160Z,11.69
2019-04-21T03:44:26.700Z,11.66
2019-04-21T03:47:08.452Z,11.59
2019-04-21T03:49:28.999Z,11.55
2019-04-21T03:51:47.539Z,11.48
2019-04-21T03:57:10.568Z,11.45
2019-04-21T03:59:09.510Z,11.43
2019-04-21T04:01:41.070Z,11.30
2019-04-21T04:04:22.356Z,11.38
2019-04-21T04:06:43.071Z,11.37
2019-04-21T04:14:15.830Z,11.05
2019-04-21T04:16:41.267Z,10.97
2019-04-21T04:18:57.743Z,10.85
2019-04-21T04:26:33.432Z,11.40
2019-04-21T04:28:58.026Z,11.53
2019-04-21T04:31:30.420Z,11.46
2019-04-21T04:36:46.674Z,11.39
2019-04-21T04:39:04.771Z,11.17
2019-04-21T04:41:24.449Z,11.13
2019-04-21T04:43:54.673Z,11.37
2019-04-21T04:46:17.821Z,11.59
2019-04-21T04:48:54.966Z,11.83
2019-04-21T04:51:23.006Z,12.10
2019-04-21T04:59:20.210Z,12.54
2019-04-21T05:14:02.668Z,13.11
2019-04-21T05:16:37.870Z,13.31
2019-04-21T05:19:06.347Z,13.67
2019-04-21T05:21:30.653Z,13.85
2019-04-21T05:23:50.093Z,14.18
2019-04-21T05:26:10.972Z,14.25
2019-04-21T05:28:40.691Z,14.25
2019-04-21T05:31:19.836Z,14.56
2019-04-21T05:33:57.736Z,14.65
2019-04-21T05:36:20.444Z,14.78
2019-04-21T05:38:47.786Z,15.05
2019-04-21T05:41:11.055Z,15.25
2019-04-21T05:43:51.442Z,15.38
2019-04-21T05:46:25.345Z,15.54
2019-04-21T05:48:52.608Z,15.67
2019-04-21T05:51:13.129Z,15.81
2019-04-21T05:54:03.540Z,16.12
2019-04-21T05:56:33.631Z,16.45
2019-04-21T05:58:58.139Z,16.88
2019-04-21T06:01:34.516Z,17.05
2019-04-21T06:04:05.511Z,17.11
2019-04-21T06:06:34.051Z,17.29
2019-04-21T06:09:11.065Z,17.36
2019-04-21T06:11:35.965Z,17.50
2019-04-21T06:14:08.382Z,17.74
2019-04-21T06:16:46.356Z,17.87
2019-04-21T06:19:11.486Z,18.21
2019-04-21T06:21:38.865Z,18.56
2019-04-21T06:24:15.673Z,18.89
2019-04-21T06:27:03.207Z,18.96
2019-04-21T06:29:21.559Z,19.19
2019-04-21T06:32:12.732Z,19.42
2019-04-21T06:34:28.905Z,19.43
2019-04-21T06:41:49.257Z,19.47
2019-04-21T06:44:16.863Z,19.43
2019-04-21T06:46:54.818Z,19.67
2019-04-21T06:49:15.687Z,19.98
2019-04-21T06:51:48.209Z,19.93
2019-04-21T06:54:23.891Z,19.97
2019-04-21T06:57:00.277Z,20.12
2019-04-21T07:02:22.505Z,20.28
2019-04-21T07:04:54.842Z,20.41
2019-04-21T07:07:12.935Z,20.45
2019-04-21T07:09:35.710Z,20.47
2019-04-21T07:12:07.421Z,20.64
2019-04-21T07:14:34.567Z,20.85
2019-04-21T07:17:11.375Z,20.95
2019-04-21T07:19:36.656Z,21.05
2019-04-21T07:22:04.777Z,21.27
2019-04-21T07:24:31.888Z,21.36
2019-04-21T07:27:03.895Z,21.52
2019-04-21T07:29:32.570Z,21.75
2019-04-21T07:31:58.717Z,21.75
2019-04-21T07:34:28.751Z,21.86
2019-04-21T07:36:54.834Z,22.13
2019-04-21T07:39:18.004Z,22.22
2019-04-21T07:41:43.829Z,22.31
2019-04-21T07:44:08.745Z,22.48
2019-04-21T07:46:38.630Z,22.70
2019-04-21T07:49:12.804Z,22.87
2019-04-21T07:51:51.907Z,22.86
2019-04-21T07:54:17.174Z,23.17
2019-04-21T07:56:28.762Z,23.12
2019-04-21T07:59:18.905Z,23.18
2019-04-21T08:01:35.635Z,23.33
2019-04-21T08:04:14.727Z,23.18
2019-04-21T08:06:43.801Z,23.12
2019-04-21T08:09:10.330Z,23.38
2019-04-21T08:11:32.675Z,23.53
2019-04-21T08:14:07.152Z,23.59
2019-04-21T08:16:36.831Z,23.77
2019-04-21T08:19:10.008Z,24.11
2019-04-21T08:21:40.532Z,24.39
2019-04-21T08:24:13.195Z,24.53
2019-04-21T08:26:36.898Z,24.42
2019-04-21T08:32:06.840Z,24.75
2019-04-21T08:34:28.461Z,24.35
2019-04-21T08:36:51.657Z,24.61
2019-04-21T08:42:26.745Z,25.07
2019-04-21T08:44:52.975Z,25.17
2019-04-21T08:47:30.046Z,25.36
2019-04-21T08:49:57.235Z,25.42
2019-04-21T08:52:42.739Z,25.24
2019-04-21T08:54:56.058Z,25.35
2019-04-21T08:57:35.691Z,25.55
2019-04-21T09:00:04.890Z,25.65
2019-04-21T09:02:35.143Z,25.83
2019-04-21T09:05:03.414Z,26.20
2019-04-21T09:07:36.313Z,26.31
2019-04-21T09:09:57.775Z,26.20
2019-04-21T09:12:29.097Z,25.88
2019-04-21T09:14:55.301Z,25.66
2019-04-21T09:17:22.067Z,25.75
2019-04-21T09:20:04.097Z,26.01
2019-04-21T09:22:17.416Z,26.20
2019-04-21T09:24:51.633Z,26.05
2019-04-21T09:27:14.208Z,26.53
2019-04-21T09:29:37.962Z,26.92
2019-04-21T09:31:59.614Z,27.25
2019-04-21T09:34:33.225Z,27.08
2019-04-21T09:37:10.489Z,26.85
2019-04-21T09:39:25.653Z,26.99
2019-04-21T09:41:54.531Z,26.82
2019-04-21T09:44:25.423Z,26.98
2019-04-21T09:46:52.382Z,27.31
2019-04-21T09:49:22.056Z,27.54
2019-04-21T09:51:44.323Z,27.47
2019-04-21T09:54:20.385Z,27.59
2019-04-21T09:56:48.391Z,27.67
2019-04-21T09:59:17.980Z,27.78
2019-04-21T10:01:54.991Z,27.19
2019-04-21T10:04:12.004Z,27.12
2019-04-21T10:06:39.588Z,27.51
2019-04-21T10:09:09.531Z,27.82
2019-04-21T10:11:37.758Z,28.16
2019-04-21T10:14:05.249Z,28.43
2019-04-21T10:16:34.331Z,28.07
2019-04-21T10:19:04.527Z,27.83
2019-04-21T10:21:31.913Z,27.78
2019-04-21T10:23:59.855Z,28.13
2019-04-21T10:26:26.815Z,28.74
2019-04-21T10:28:58.968Z,28.84
2019-04-21T10:31:24.842Z,28.76
2019-04-21T10:33:54.559Z,29.02
2019-04-21T10:36:24.868Z,29.38
2019-04-21T10:38:53.576Z,29.43
2019-04-21T10:41:21.785Z,29.36
2019-04-21T10:43:51.400Z,29.47
2019-04-21T10:46:22.792Z,29.14
2019-04-21T10:48:53.083Z,29.00
2019-04-21T10:51:21.227Z,28.85
2019-04-21T10:53:52.470Z,29.32
2019-04-21T10:56:27.227Z,29.51
2019-04-21T10:58:47.396Z,29.41
2019-04-21T11:01:14.223Z,29.49
2019-04-21T11:03:42.603Z,29.84
2019-04-21T11:06:10.660Z,29.58
2019-04-21T11:08:41.551Z,29.78
2019-04-21T11:11:08.134Z,29.83
2019-04-21T11:13:34.857Z,29.90
2019-04-21T11:16:05.388Z,29.96
2019-04-21T11:18:32.055Z,29.96
2019-04-21T11:21:00.909Z,30.22
2019-04-21T11:23:29.016Z,30.52
2019-04-21T11:25:55.837Z,30.42
2019-04-21T11:28:22.987Z,30.61
2019-04-21T11:30:53.083Z,30.30
2019-04-21T11:33:22.968Z,30.00
2019-04-21T11:35:53.170Z,29.26
2019-04-21T11:38:26.635Z,29.31
2019-04-21T11:40:55.923Z,29.71
2019-04-21T11:43:25.678Z,30.34
2019-04-21T11:45:54.840Z,30.35
2019-04-21T11:48:24.239Z,29.97
2019-04-21T11:50:50.983Z,29.82
2019-04-21T11:53:18.940Z,30.12
2019-04-21T11:55:50.126Z,30.31
2019-04-21T11:58:16.082Z,30.65
2019-04-21T12:00:42.509Z,30.57
2019-04-21T12:03:10.875Z,29.95
2019-04-21T12:05:39.502Z,30.16
2019-04-21T12:08:20.768Z,30.48
2019-04-21T12:10:41.850Z,30.50
2019-04-21T12:13:12.071Z,30.76
2019-04-21T12:15:39.205Z,31.19
2019-04-21T12:18:06.455Z,31.18
2019-04-21T12:20:35.420Z,31.04
2019-04-21T12:23:07.191Z,31.13
2019-04-21T12:25:34.703Z,30.99
2019-04-21T12:28:01.771Z,30.78
2019-04-21T12:30:29.442Z,30.86
2019-04-21T12:33:00.198Z,30.79
2019-04-21T12:35:30.086Z,31.13
2019-04-21T12:38:00.603Z,31.52
2019-04-21T12:40:30.646Z,31.08
2019-04-21T12:43:00.964Z,30.39
2019-04-21T12:45:31.626Z,30.85
2019-04-21T12:48:00.034Z,30.70
2019-04-21T12:50:29.985Z,30.73
2019-04-21T12:53:01.363Z,30.76
2019-04-21T12:55:35.153Z,30.71
2019-04-21T12:58:01.442Z,30.75
2019-04-21T13:00:31.235Z,31.29
2019-04-21T13:03:01.548Z,31.56
2019-04-21T13:05:31.548Z,31.79
2019-04-21T13:08:03.679Z,32.02
2019-04-21T13:10:31.828Z,31.30
2019-04-21T13:12:59.998Z,30.34
2019-04-21T13:15:31.328Z,30.16
2019-04-21T13:18:01.023Z,30.59
2019-04-21T13:20:29.651Z,30.88
2019-04-21T13:22:57.795Z,30.98
2019-04-21T13:25:27.794Z,31.30
2019-04-21T13:27:54.459Z,31.65
2019-04-21T13:33:09.223Z,31.47
2019-04-21T13:35:39.025Z,31.43
2019-04-21T13:38:17.265Z,30.93
2019-04-21T13:40:53.402Z,30.95
2019-04-21T13:43:08.287Z,30.88
2019-04-21T13:45:34.288Z,30.80
2019-04-21T13:48:10.614Z,30.70
2019-04-21T13:50:37.291Z,31.02
2019-04-21T13:53:06.846Z,30.79
2019-04-21T13:55:36.906Z,30.79
2019-04-21T13:58:04.288Z,30.10
2019-04-21T14:00:35.803Z,29.99
2019-04-21T14:03:07.019Z,29.98
2019-04-21T14:05:33.172Z,30.44
2019-04-21T14:08:01.040Z,31.13
2019-04-21T14:10:29.218Z,31.27
2019-04-21T14:12:56.374Z,31.42
2019-04-21T14:15:24.620Z,31.51
2019-04-21T14:17:53.054Z,31.54
2019-04-21T14:20:22.374Z,31.91
2019-04-21T14:22:49.701Z,31.92
2019-04-21T14:25:19.640Z,31.79
2019-04-21T14:27:49.962Z,31.43
2019-04-21T14:30:18.575Z,31.08
2019-04-21T14:32:44.790Z,31.29
2019-04-21T14:38:00.519Z,31.49
2019-04-21T14:40:31.356Z,31.23
2019-04-21T14:42:56.282Z,31.30
2019-04-21T14:45:24.982Z,31.35
2019-04-21T14:47:54.155Z,30.74
2019-04-21T14:50:22.142Z,30.43
2019-04-21T14:52:50.645Z,30.32
2019-04-21T14:55:20.826Z,30.31
2019-04-21T14:57:51.679Z,30.62
2019-04-21T15:00:20.938Z,30.90
2019-04-21T15:02:51.816Z,31.23
2019-04-21T15:05:21.791Z,31.47
2019-04-21T15:07:49.029Z,31.35
2019-04-21T15:10:23.425Z,31.30
2019-04-21T15:12:47.758Z,31.10
2019-04-21T15:15:18.093Z,30.72
2019-04-21T15:17:47.646Z,30.79
2019-04-21T15:20:17.789Z,31.01
2019-04-21T15:22:50.289Z,31.31
2019-04-21T15:28:09.615Z,30.94
2019-04-21T15:30:36.584Z,30.45
2019-04-21T15:33:04.643Z,30.35
2019-04-21T15:35:40.652Z,30.15
2019-04-21T15:38:09.847Z,30.18
2019-04-21T15:40:50.543Z,30.37
2019-04-21T15:43:10.591Z,30.37
2019-04-21T15:45:42.389Z,30.33
2019-04-21T15:48:09.734Z,30.36
2019-04-21T15:50:44.231Z,30.47
2019-04-21T15:53:09.716Z,30.59
2019-04-21T15:55:38.997Z,30.59
2019-04-21T15:58:08.499Z,30.62
2019-04-21T16:00:36.348Z,30.37
2019-04-21T16:03:06.821Z,30.23
2019-04-21T16:05:35.178Z,30.01
2019-04-21T16:08:02.194Z,29.96
2019-04-21T16:10:56.653Z,30.03
2019-04-21T16:13:21.665Z,30.22
2019-04-21T16:15:48.517Z,30.18
2019-04-21T16:18:16.159Z,30.24
2019-04-21T16:20:43.910Z,30.05
2019-04-21T16:23:10.936Z,29.99
2019-04-21T16:25:39.015Z,30.15
2019-04-21T16:28:05.941Z,29.71
2019-04-21T16:30:34.073Z,29.48
2019-04-21T16:33:01.959Z,29.71
2019-04-21T16:35:29.550Z,29.80
2019-04-21T16:37:57.872Z,29.67
2019-04-21T16:40:25.476Z,29.63
2019-04-21T16:42:52.527Z,29.73
2019-04-21T16:45:19.204Z,29.66
2019-04-21T16:47:55.990Z,29.53
2019-04-21T16:50:23.870Z,29.50
2019-04-21T16:52:52.137Z,30.16
2019-04-21T16:55:19.171Z,30.40
2019-04-21T16:57:59.602Z,30.09
2019-04-21T17:00:29.077Z,29.74
2019-04-21T17:02:52.468Z,29.05
2019-04-21T17:05:22.384Z,28.48
2019-04-21T17:07:53.086Z,28.14
2019-04-21T17:10:20.519Z,28.00
2019-04-21T17:12:47.985Z,27.48
2019-04-21T17:15:32.326Z,27.37
2019-04-21T17:18:06.435Z,27.23
2019-04-21T17:22:46.183Z,26.96
2019-04-21T17:25:16.081Z,26.91
2019-04-21T17:27:47.276Z,26.92
2019-04-21T17:30:16.622Z,26.77
2019-04-21T17:32:48.431Z,26.69
2019-04-21T17:35:12.577Z,26.56
2019-04-21T17:37:42.364Z,26.42
2019-04-21T17:40:13.450Z,26.27
2019-04-21T17:42:48.875Z,26.17
2019-04-21T17:45:11.342Z,26.07
2019-04-21T17:47:48.222Z,25.99
2019-04-21T17:50:07.794Z,25.94
2019-04-21T17:52:45.127Z,25.82
2019-04-21T17:55:16.830Z,25.77
2019-04-21T17:57:57.053Z,25.68
2019-04-21T18:00:41.442Z,25.62
2019-04-21T18:03:01.854Z,25.41
2019-04-21T18:05:30.407Z,25.18
2019-04-21T18:07:51.450Z,25.05
2019-04-21T18:10:19.207Z,25.05
2019-04-21T18:12:45.895Z,25.03
2019-04-21T18:15:21.777Z,24.92
2019-04-21T18:17:36.578Z,24.76
2019-04-21T18:20:07.872Z,24.53
2019-04-21T18:22:39.531Z,24.42
2019-04-21T18:25:10.533Z,24.23
2019-04-21T18:27:34.492Z,23.98
2019-04-21T18:30:06.427Z,23.84
2019-04-21T18:32:39.725Z,23.73
2019-04-21T18:35:07.039Z,23.60
2019-04-21T18:40:21.512Z,23.42
2019-04-21T18:43:04.440Z,23.27
2019-04-21T18:47:53.918Z,23.08
2019-04-21T18:52:55.579Z,22.43
2019-04-21T18:55:16.333Z,22.25
2019-04-21T18:57:41.524Z,22.14
2019-04-21T19:00:11.554Z,22.09
2019-04-21T19:05:15.494Z,22.19
2019-04-21T19:07:59.841Z,22.07
2019-04-21T19:10:29.582Z,22.03
2019-04-21T19:13:23.167Z,22.14
2019-04-21T19:15:27.250Z,22.14
2019-04-21T19:18:28.294Z,22.14
2019-04-21T19:20:26.015Z,22.11
2019-04-21T19:22:52.438Z,22.15
2019-04-21T19:25:23.894Z,22.05
2019-04-21T19:27:48.802Z,21.82
2019-04-21T19:30:30.074Z,21.66
2019-04-21T19:32:49.711Z,21.41
2019-04-21T19:35:02.381Z,21.26
2019-04-21T19:37:38.864Z,21.11
2019-04-21T19:40:09.613Z,21.12
2019-04-21T19:42:37.965Z,21.20
2019-04-21T19:45:10.702Z,21.38
2019-04-21T19:47:46.026Z,21.31
2019-04-21T19:50:10.741Z,21.21
2019-04-21T19:52:31.988Z,21.06
2019-04-21T19:54:50.620Z,20.97
2019-04-21T19:57:16.915Z,20.98
2019-04-21T19:59:48.459Z,20.95
2019-04-21T20:02:14.193Z,21.07
2019-04-21T20:04:50.318Z,20.90
2019-04-21T20:07:22.883Z,20.73
2019-04-21T20:09:56.579Z,20.64
2019-04-21T20:12:34.262Z,20.64
2019-04-21T20:15:00.684Z,20.49
2019-04-21T20:17:13.663Z,20.36
2019-04-21T20:19:32.416Z,20.44
2019-04-21T20:22:00.626Z,20.45
2019-04-21T20:24:31.688Z,20.25
2019-04-21T20:27:03.591Z,20.16
2019-04-21T20:29:47.077Z,20.18
2019-04-21T20:32:20.040Z,20.04
2019-04-21T20:34:38.676Z,19.93
2019-04-21T20:37:15.015Z,19.79
2019-04-21T20:39:28.332Z,19.71
2019-04-21T20:42:16.634Z,19.70
2019-04-21T20:44:48.354Z,19.68
2019-04-21T20:47:16.610Z,19.54
2019-04-21T20:49:41.518Z,19.41
2019-04-21T20:52:23.897Z,19.32
2019-04-21T20:54:49.382Z,19.31
2019-04-21T20:57:24.119Z,19.25
2019-04-21T20:59:43.947Z,19.02
2019-04-21T21:04:56.896Z,18.84
2019-04-21T21:07:50.620Z,18.76
2019-04-21T21:10:07.282Z,18.76
2019-04-21T21:14:57.768Z,18.73
2019-04-21T21:20:02.692Z,18.54
2019-04-21T21:22:27.910Z,18.54
2019-04-21T21:24:57.113Z,18.49
2019-04-21T21:27:26.751Z,18.29
2019-04-21T21:29:56.620Z,18.17
2019-04-21T21:32:32.122Z,18.28
2019-04-21T21:34:59.645Z,18.37
2019-04-21T21:37:32.291Z,18.23
2019-04-21T21:40:04.098Z,18.18
2019-04-21T21:42:11.828Z,18.10
2019-04-21T21:44:40.764Z,18.01
2019-04-21T21:47:25.304Z,17.86
2019-04-21T21:49:52.701Z,17.77
2019-04-21T21:52:18.274Z,17.70
2019-04-21T21:54:37.960Z,17.77
2019-04-21T21:57:08.582Z,17.65
2019-04-21T21:59:38.274Z,17.55
2019-04-21T22:02:09.012Z,17.53
2019-04-21T22:04:44.463Z,17.58
2019-04-21T22:07:12.387Z,17.50
2019-04-21T22:09:36.503Z,17.52
2019-04-21T22:12:06.595Z,17.46
2019-04-21T22:14:41.071Z,17.57
2019-04-21T22:17:20.037Z,17.45
2019-04-21T22:20:01.849Z,17.40
2019-04-21T22:22:18.009Z,17.30
2019-04-21T22:24:46.960Z,17.17
2019-04-21T22:27:03.166Z,17.04
2019-04-21T22:29:36.335Z,17.05
2019-04-21T22:32:07.836Z,17.12
2019-04-21T22:34:34.290Z,17.03
2019-04-21T22:37:14.323Z,16.97
2019-04-21T22:39:44.718Z,17.02
2019-04-21T22:42:05.806Z,17.04
2019-04-21T22:44:22.797Z,17.00
2019-04-21T22:46:58.404Z,17.08
2019-04-21T22:49:19.946Z,17.02
2019-04-21T22:51:50.044Z,16.77
2019-04-21T22:54:22.827Z,16.61
2019-04-21T22:56:53.039Z,16.46
2019-04-21T22:59:20.049Z,16.29
2019-04-21T23:01:47.452Z,16.34
2019-04-21T23:04:11.989Z,16.45
2019-04-21T23:06:40.901Z,16.27
2019-04-21T23:09:08.800Z,16.17
2019-04-21T23:11:43.675Z,16.30
2019-04-21T23:14:09.688Z,16.39
2019-04-21T23:16:36.257Z,16.42
2019-04-21T23:21:55.455Z,16.36
2019-04-21T23:24:26.546Z,16.24
2019-04-21T23:26:49.310Z,16.14
2019-04-21T23:29:17.343Z,15.97
2019-04-21T23:31:52.129Z,15.77
2019-04-21T23:34:00.086Z,15.72
2019-04-21T23:36:31.365Z,15.79
2019-04-21T23:38:58.207Z,15.90
2019-04-21T23:41:26.024Z,15.84
2019-04-21T23:44:00.369Z,15.80
2019-04-21T23:46:26.746Z,15.78
2019-04-21T23:49:07.087Z,15.69
2019-04-21T23:51:31.404Z,15.56
2019-04-21T23:53:49.159Z,15.49
2019-04-21T23:56:23.195Z,15.46
2019-04-21T23:58:51.955Z,15.46
